createdAt,value
2023-08-14T00:00:56.637Z,74.67
2023-08-14T00:01:56.480Z,74.63
2023-08-14T00:02:56.308Z,74.54
2023-08-14T00:03:56.242Z,74.44
2023-08-14T00:04:56.208Z,74.24
2023-08-14T00:05:56.213Z,74.24
2023-08-14T00:06:56.164Z,74.01
2023-08-14T00:07:56.191Z,73.94
2023-08-14T00:08:56.132Z,73.94
2023-08-14T00:09:56.170Z,74.24
2023-08-14T00:10:56.115Z,74.24
2023-08-14T00:12:28.023Z,74.14
2023-08-14T00:12:57.134Z,75.07
2023-08-14T00:13:56.158Z,74.63
2023-08-14T00:14:56.058Z,74.54
2023-08-14T00:15:56.144Z,74.24
2023-08-14T00:16:56.046Z,74.63
2023-08-14T00:17:56.155Z,74.74
2023-08-14T00:18:56.338Z,74.77
2023-08-14T00:19:56.036Z,74.74
2023-08-14T00:20:55.973Z,74.24
2023-08-14T00:21:55.986Z,74.48
2023-08-14T00:22:55.937Z,75.20
2023-08-14T00:23:55.995Z,75.50
2023-08-14T00:24:55.932Z,76.23
2023-08-14T00:25:55.950Z,76.92
2023-08-14T00:26:55.920Z,77.22
2023-08-14T00:27:55.916Z,77.03
2023-08-14T00:28:55.945Z,77.03
2023-08-14T00:29:55.873Z,76.59
2023-08-14T00:30:55.899Z,76.20
2023-08-14T00:31:55.845Z,75.56
2023-08-14T00:32:55.830Z,75.33
2023-08-14T00:33:55.828Z,74.74
2023-08-14T00:34:55.913Z,74.63
2023-08-14T00:35:55.983Z,74.14
2023-08-14T00:36:55.809Z,74.24
2023-08-14T00:37:55.805Z,74.34
2023-08-14T00:38:55.739Z,74.24
2023-08-14T00:39:55.742Z,74.01
2023-08-14T00:40:55.720Z,73.94
2023-08-14T00:41:55.722Z,74.24
2023-08-14T00:42:55.675Z,74.24
2023-08-14T00:43:55.734Z,74.44
2023-08-14T00:44:55.731Z,74.54
2023-08-14T00:45:55.660Z,74.54
2023-08-14T00:46:55.621Z,74.63
2023-08-14T00:47:55.697Z,74.63
2023-08-14T00:48:55.610Z,74.34
2023-08-14T00:49:55.624Z,74.63
2023-08-14T00:50:55.711Z,74.54
2023-08-14T00:51:55.558Z,74.44
2023-08-14T00:52:55.562Z,74.44
2023-08-14T00:53:55.563Z,73.81
2023-08-14T00:54:55.527Z,74.54
2023-08-14T00:55:55.544Z,74.84
2023-08-14T00:56:55.515Z,74.93
2023-08-14T00:57:55.508Z,74.93
2023-08-14T00:58:55.492Z,74.74
2023-08-14T00:59:55.518Z,74.84
2023-08-14T01:00:55.463Z,74.54
2023-08-14T01:01:55.472Z,74.74
2023-08-14T01:02:55.575Z,74.97
2023-08-14T01:03:55.430Z,75.27
2023-08-14T01:04:55.372Z,75.03
2023-08-14T01:05:55.392Z,74.93
2023-08-14T01:06:55.352Z,74.74
2023-08-14T01:07:55.379Z,74.63
2023-08-14T01:08:55.364Z,74.44
2023-08-14T01:09:55.367Z,74.21
2023-08-14T01:10:55.321Z,73.91
2023-08-14T01:11:55.316Z,74.21
2023-08-14T01:12:55.315Z,74.10
2023-08-14T01:13:55.298Z,74.01
2023-08-14T01:14:55.315Z,74.01
2023-08-14T01:15:55.269Z,73.91
2023-08-14T01:16:55.250Z,73.81
2023-08-14T01:17:55.243Z,74.54
2023-08-14T01:18:55.188Z,74.63
2023-08-14T01:19:55.245Z,74.84
2023-08-14T01:20:55.195Z,74.54
2023-08-14T01:21:55.226Z,74.84
2023-08-14T01:22:55.159Z,75.16
2023-08-14T01:23:55.173Z,75.56
2023-08-14T01:24:55.122Z,75.27
2023-08-14T01:25:55.169Z,75.27
2023-08-14T01:26:55.129Z,75.56
2023-08-14T01:27:55.089Z,75.80
2023-08-14T01:28:55.127Z,76.39
2023-08-14T01:29:55.069Z,76.69
2023-08-14T01:30:55.061Z,76.59
2023-08-14T01:31:55.065Z,76.39
2023-08-14T01:32:55.043Z,76.69
2023-08-14T01:33:55.046Z,76.29
2023-08-14T01:34:54.977Z,76.06
2023-08-14T01:35:55.002Z,75.56
2023-08-14T01:36:55.078Z,75.37
2023-08-14T01:37:54.966Z,75.27
2023-08-14T01:38:54.970Z,75.16
2023-08-14T01:39:54.947Z,75.13
2023-08-14T01:40:54.954Z,74.63
2023-08-14T01:41:54.938Z,74.97
2023-08-14T01:42:54.961Z,75.99
2023-08-14T01:43:55.099Z,76.82
2023-08-14T01:44:54.889Z,77.56
2023-08-14T01:45:54.926Z,78.16
2023-08-14T01:46:54.830Z,78.49
2023-08-14T01:47:54.885Z,78.85
2023-08-14T01:48:54.933Z,78.49
2023-08-14T01:49:54.853Z,78.59
2023-08-14T01:50:54.785Z,78.69
2023-08-14T01:51:54.773Z,78.59
2023-08-14T01:52:54.759Z,78.69
2023-08-14T01:53:54.774Z,77.95
2023-08-14T01:54:54.857Z,78.16
2023-08-14T01:55:54.779Z,77.95
2023-08-14T01:56:54.728Z,77.62
2023-08-14T01:57:54.762Z,77.12
2023-08-14T01:58:54.692Z,76.59
2023-08-14T01:59:54.723Z,76.39
2023-08-14T02:00:54.637Z,76.06
2023-08-14T02:01:54.713Z,76.06
2023-08-14T02:02:54.725Z,76.06
2023-08-14T02:03:54.775Z,76.16
2023-08-14T02:04:54.612Z,76.26
2023-08-14T02:05:54.619Z,76.16
2023-08-14T02:07:01.590Z,76.12
2023-08-14T02:08:01.853Z,75.29
2023-08-14T02:08:54.612Z,75.20
2023-08-14T02:09:54.582Z,75.29
2023-08-14T02:10:54.523Z,75.33
2023-08-14T02:11:54.501Z,75.23
2023-08-14T02:12:54.488Z,75.63
2023-08-14T02:13:54.518Z,76.35
2023-08-14T02:14:54.445Z,76.85
2023-08-14T02:15:54.456Z,76.59
2023-08-14T02:16:54.444Z,76.89
2023-08-14T02:17:54.682Z,76.99
2023-08-14T02:18:54.404Z,77.22
2023-08-14T02:19:54.547Z,77.62
2023-08-14T02:20:54.361Z,77.52
2023-08-14T02:21:54.363Z,77.72
2023-08-14T02:22:54.346Z,78.02
2023-08-14T02:23:54.365Z,77.92
2023-08-14T02:24:54.300Z,77.68
2023-08-14T02:25:54.377Z,77.39
2023-08-14T02:26:54.276Z,77.28
2023-08-14T02:27:54.294Z,77.28
2023-08-14T02:28:54.300Z,77.19
2023-08-14T02:29:54.299Z,77.82
2023-08-14T02:30:54.236Z,77.78
2023-08-14T02:31:54.316Z,77.39
2023-08-14T02:32:54.352Z,77.82
2023-08-14T02:33:54.247Z,77.78
2023-08-14T02:34:54.286Z,77.15
2023-08-14T02:35:54.288Z,76.65
2023-08-14T02:36:54.152Z,76.65
2023-08-14T02:37:54.175Z,76.95
2023-08-14T02:38:54.103Z,77.05
2023-08-14T02:39:54.137Z,77.15
2023-08-14T02:40:54.072Z,76.62
2023-08-14T02:41:54.118Z,76.32
2023-08-14T02:42:54.071Z,76.52
2023-08-14T02:43:54.119Z,76.32
2023-08-14T02:44:54.040Z,76.12
2023-08-14T02:45:54.112Z,76.22
2023-08-14T02:46:53.999Z,76.32
2023-08-14T02:47:54.078Z,76.22
2023-08-14T02:48:53.997Z,76.03
2023-08-14T02:49:54.025Z,75.86
2023-08-14T02:50:53.970Z,76.75
2023-08-14T02:51:53.952Z,77.62
2023-08-14T02:52:53.938Z,78.55
2023-08-14T02:53:54.014Z,79.38
2023-08-14T02:54:53.927Z,80.18
2023-08-14T02:55:53.938Z,80.51
2023-08-14T02:56:55.029Z,80.37
2023-08-14T02:57:53.869Z,80.27
2023-08-14T02:58:53.856Z,79.54
2023-08-14T02:59:53.848Z,79.35
2023-08-14T03:00:53.869Z,79.11
2023-08-14T03:01:53.982Z,78.38
2023-08-14T03:02:53.873Z,77.98
2023-08-14T03:03:53.815Z,77.78
2023-08-14T03:04:53.773Z,77.58
2023-08-14T03:05:53.775Z,77.09
2023-08-14T03:06:54.560Z,76.69
2023-08-14T03:07:53.756Z,77.39
2023-08-14T03:08:53.704Z,77.48
2023-08-14T03:09:53.706Z,77.19
2023-08-14T03:10:53.683Z,76.99
2023-08-14T03:11:53.671Z,77.52
2023-08-14T03:12:53.672Z,77.52
2023-08-14T03:13:53.669Z,77.58
2023-08-14T03:14:53.649Z,77.48
2023-08-14T03:15:53.666Z,77.58
2023-08-14T03:16:53.629Z,77.58
2023-08-14T03:17:53.657Z,77.28
2023-08-14T03:18:53.593Z,76.99
2023-08-14T03:19:53.599Z,77.32
2023-08-14T03:20:53.568Z,77.62
2023-08-14T03:21:53.562Z,77.19
2023-08-14T03:22:53.537Z,76.89
2023-08-14T03:23:53.546Z,76.69
2023-08-14T03:24:53.528Z,76.56
2023-08-14T03:25:53.483Z,76.35
2023-08-14T03:26:53.505Z,75.96
2023-08-14T03:27:53.470Z,75.76
2023-08-14T03:28:53.479Z,75.86
2023-08-14T03:29:53.437Z,75.96
2023-08-14T03:30:53.495Z,76.06
2023-08-14T03:31:53.394Z,76.20
2023-08-14T03:32:53.434Z,76.59
2023-08-14T03:33:53.389Z,76.79
2023-08-14T03:34:53.409Z,76.59
2023-08-14T03:35:53.413Z,76.59
2023-08-14T03:36:53.407Z,76.59
2023-08-14T03:37:53.347Z,76.79
2023-08-14T03:38:53.399Z,77.09
2023-08-14T03:39:53.364Z,77.32
2023-08-14T03:40:53.330Z,77.22
2023-08-14T03:41:53.265Z,77.52
2023-08-14T03:42:53.380Z,77.72
2023-08-14T03:43:53.271Z,77.62
2023-08-14T03:44:53.268Z,77.72
2023-08-14T03:45:53.214Z,77.39
2023-08-14T03:46:53.228Z,77.28
2023-08-14T03:47:53.225Z,76.89
2023-08-14T03:48:53.310Z,76.99
2023-08-14T03:49:53.152Z,77.22
2023-08-14T03:50:53.230Z,77.95
2023-08-14T03:51:53.144Z,78.16
2023-08-14T03:52:53.151Z,78.45
2023-08-14T03:53:53.100Z,78.65
2023-08-14T03:54:53.161Z,78.75
2023-08-14T03:55:53.064Z,78.55
2023-08-14T03:56:53.065Z,78.35
2023-08-14T03:57:53.043Z,77.58
2023-08-14T03:58:53.081Z,77.28
2023-08-14T03:59:53.018Z,76.89
2023-08-14T04:00:53.079Z,77.12
2023-08-14T04:01:53.025Z,77.66
2023-08-14T04:02:53.136Z,77.86
2023-08-14T04:03:53.026Z,77.12
2023-08-14T04:04:52.974Z,76.82
2023-08-14T04:05:52.948Z,76.82
2023-08-14T04:06:53.022Z,76.10
2023-08-14T04:07:52.915Z,75.90
2023-08-14T04:08:52.944Z,76.33
2023-08-14T04:09:52.909Z,76.46
2023-08-14T04:10:52.884Z,77.00
2023-08-14T04:11:52.854Z,77.26
2023-08-14T04:12:52.870Z,77.50
2023-08-14T04:13:52.883Z,77.26
2023-08-14T04:14:52.900Z,76.76
2023-08-14T04:15:52.783Z,76.53
2023-08-14T04:16:52.880Z,76.03
2023-08-14T04:17:52.800Z,75.84
2023-08-14T04:18:52.775Z,76.03
2023-08-14T04:19:52.752Z,76.17
2023-08-14T04:20:52.803Z,76.46
2023-08-14T04:21:52.714Z,77.40
2023-08-14T04:22:52.754Z,77.59
2023-08-14T04:23:52.734Z,77.00
2023-08-14T04:24:52.702Z,77.10
2023-08-14T04:25:52.710Z,76.70
2023-08-14T04:26:52.773Z,77.23
2023-08-14T04:27:52.648Z,77.73
2023-08-14T04:28:52.705Z,77.83
2023-08-14T04:29:52.648Z,77.29
2023-08-14T04:30:52.636Z,76.90
2023-08-14T04:31:52.834Z,76.50
2023-08-14T04:32:52.695Z,76.46
2023-08-14T04:33:52.588Z,76.07
2023-08-14T04:34:52.589Z,75.74
2023-08-14T04:35:52.668Z,75.24
2023-08-14T04:36:52.576Z,75.48
2023-08-14T04:37:52.580Z,75.87
2023-08-14T04:38:52.636Z,75.97
2023-08-14T04:39:52.627Z,75.67
2023-08-14T04:40:52.493Z,75.78
2023-08-14T04:41:52.498Z,75.44
2023-08-14T04:42:52.469Z,75.14
2023-08-14T04:43:52.454Z,75.14
2023-08-14T04:44:52.493Z,75.14
2023-08-14T04:45:52.436Z,75.57
2023-08-14T04:46:59.547Z,75.97
2023-08-14T04:47:56.863Z,75.48
2023-08-14T04:48:52.378Z,75.38
2023-08-14T04:49:52.363Z,75.48
2023-08-14T04:50:52.389Z,75.57
2023-08-14T04:51:52.365Z,75.18
2023-08-14T04:52:52.300Z,76.21
2023-08-14T04:53:52.299Z,75.78
2023-08-14T04:54:52.292Z,75.48
2023-08-14T04:55:52.252Z,75.27
2023-08-14T04:56:52.325Z,75.78
2023-08-14T04:57:52.239Z,75.97
2023-08-14T04:58:52.284Z,75.57
2023-08-14T04:59:52.221Z,75.44
2023-08-14T05:00:52.207Z,74.71
2023-08-14T05:01:52.194Z,74.74
2023-08-14T05:02:52.246Z,74.84
2023-08-14T05:03:52.215Z,75.48
2023-08-14T05:04:52.177Z,75.87
2023-08-14T05:05:52.110Z,75.38
2023-08-14T05:06:52.130Z,75.27
2023-08-14T05:07:52.102Z,75.38
2023-08-14T05:08:52.183Z,74.74
2023-08-14T05:09:52.116Z,74.35
2023-08-14T05:10:52.087Z,75.08
2023-08-14T05:11:52.050Z,75.38
2023-08-14T05:12:52.040Z,74.11
2023-08-14T05:13:52.038Z,73.65
2023-08-14T05:14:54.224Z,74.35
2023-08-14T05:16:06.754Z,73.72
2023-08-14T05:16:53.131Z,73.02
2023-08-14T05:17:52.018Z,72.33
2023-08-14T05:18:51.988Z,69.22
2023-08-14T05:19:51.964Z,67.28
2023-08-14T05:20:51.973Z,66.13
2023-08-14T05:21:51.924Z,63.38
2023-08-14T05:22:51.970Z,62.79
2023-08-14T05:23:52.839Z,61.91
2023-08-14T05:24:51.926Z,59.59
2023-08-14T05:25:51.903Z,59.30
2023-08-14T05:26:51.897Z,59.84
2023-08-14T05:27:51.847Z,60.66
2023-08-14T05:28:51.883Z,60.57
2023-08-14T05:29:51.801Z,60.89
2023-08-14T05:30:51.818Z,60.57
2023-08-14T05:31:51.806Z,59.75
2023-08-14T05:32:52.032Z,61.18
2023-08-14T05:33:51.802Z,61.80
2023-08-14T05:34:51.762Z,61.29
2023-08-14T05:35:51.744Z,60.11
2023-08-14T05:36:51.780Z,58.26
2023-08-14T05:37:51.709Z,57.25
2023-08-14T05:38:51.720Z,55.99
2023-08-14T05:39:51.711Z,54.15
2023-08-14T05:40:51.723Z,51.92
2023-08-14T05:41:51.644Z,51.09
2023-08-14T05:42:51.671Z,50.70
2023-08-14T05:43:51.637Z,51.76
2023-08-14T05:44:51.686Z,53.20
2023-08-14T05:45:51.627Z,54.03
2023-08-14T05:46:51.633Z,54.72
2023-08-14T05:47:51.629Z,54.30
2023-08-14T05:48:51.592Z,55.26
2023-08-14T05:49:51.539Z,58.32
2023-08-14T05:50:51.588Z,59.28
2023-08-14T05:51:51.539Z,60.20
2023-08-14T05:52:51.648Z,60.92
2023-08-14T05:53:51.505Z,62.29
2023-08-14T05:54:51.548Z,63.08
2023-08-14T05:55:51.489Z,62.68
2023-08-14T05:56:51.512Z,63.31
2023-08-14T05:57:51.471Z,63.83
2023-08-14T05:58:51.450Z,64.36
2023-08-14T05:59:51.425Z,65.70
2023-08-14T06:00:51.535Z,66.29
2023-08-14T06:01:51.442Z,66.39
2023-08-14T06:02:51.457Z,66.36
2023-08-14T06:03:51.426Z,65.73
2023-08-14T06:04:51.397Z,64.72
2023-08-14T06:05:51.320Z,64.32
2023-08-14T06:06:51.353Z,64.52
2023-08-14T06:07:52.213Z,64.52
2023-08-14T06:08:51.351Z,64.42
2023-08-14T06:09:51.300Z,65.05
2023-08-14T06:10:51.327Z,64.84
2023-08-14T06:11:51.266Z,65.27
2023-08-14T06:12:51.312Z,67.02
2023-08-14T06:13:51.247Z,67.51
2023-08-14T06:14:52.071Z,67.44
2023-08-14T06:15:51.192Z,67.74
2023-08-14T06:16:51.256Z,68.13
2023-08-14T06:17:51.320Z,68.13
2023-08-14T06:18:51.188Z,67.77
2023-08-14T06:19:51.134Z,64.36
2023-08-14T06:20:51.153Z,61.13
2023-08-14T06:21:51.110Z,57.90
2023-08-14T06:22:51.109Z,58.02
2023-08-14T06:24:51.113Z,59.23
2023-08-14T06:25:51.085Z,58.22
2023-08-14T06:26:51.065Z,57.06
2023-08-14T06:27:51.037Z,55.63
2023-08-14T06:28:51.050Z,54.91
2023-08-14T06:29:51.051Z,53.81
2023-08-14T06:30:51.065Z,53.66
2023-08-14T06:31:50.998Z,52.25
2023-08-14T06:32:51.028Z,52.69
2023-08-14T06:33:51.068Z,53.74
2023-08-14T06:34:50.995Z,55.16
2023-08-14T06:35:50.968Z,56.40
2023-08-14T06:36:50.957Z,57.53
2023-08-14T06:37:50.929Z,57.31
2023-08-14T06:38:50.943Z,57.82
2023-08-14T06:39:50.896Z,57.82
2023-08-14T06:40:50.878Z,57.14
2023-08-14T06:41:50.895Z,60.63
2023-08-14T06:42:50.898Z,59.75
2023-08-14T06:43:51.004Z,56.47
2023-08-14T06:44:50.851Z,54.40
2023-08-14T06:45:50.796Z,52.98
2023-08-14T06:46:50.853Z,53.23
2023-08-14T06:47:50.853Z,54.36
2023-08-14T06:48:50.812Z,55.16
2023-08-14T06:49:50.844Z,55.29
2023-08-14T06:50:50.794Z,55.81
2023-08-14T06:51:50.725Z,56.40
2023-08-14T06:52:50.767Z,56.52
2023-08-14T06:53:51.664Z,56.92
2023-08-14T06:54:50.777Z,56.82
2023-08-14T06:55:50.736Z,56.62
2023-08-14T06:56:50.783Z,56.16
2023-08-14T06:57:50.685Z,57.98
2023-08-14T06:58:50.759Z,58.43
2023-08-14T06:59:50.681Z,58.62
2023-08-14T07:00:51.409Z,58.11
2023-08-14T07:01:50.634Z,57.49
2023-08-14T07:02:50.710Z,57.49
2023-08-14T07:03:50.747Z,56.90
2023-08-14T07:04:50.665Z,57.71
2023-08-14T07:05:50.574Z,58.65
2023-08-14T07:06:50.570Z,58.75
2023-08-14T07:07:50.548Z,58.62
2023-08-14T07:08:50.541Z,58.83
2023-08-14T07:09:50.519Z,58.01
2023-08-14T07:10:50.498Z,57.81
2023-08-14T07:11:50.478Z,57.71
2023-08-14T07:12:50.609Z,57.62
2023-08-14T07:13:50.891Z,58.01
2023-08-14T07:14:51.817Z,58.11
2023-08-14T07:15:50.445Z,57.78
2023-08-14T07:16:50.458Z,57.88
2023-08-14T07:17:50.442Z,58.20
2023-08-14T07:18:50.438Z,59.12
2023-08-14T07:19:50.449Z,59.44
2023-08-14T07:20:50.449Z,60.49
2023-08-14T07:21:50.352Z,60.91
2023-08-14T07:22:50.408Z,60.78
2023-08-14T07:23:50.335Z,60.16
2023-08-14T07:24:50.373Z,60.55
2023-08-14T07:25:50.401Z,60.13
2023-08-14T07:26:50.322Z,59.61
2023-08-14T07:27:50.300Z,59.19
2023-08-14T07:28:50.279Z,58.89
2023-08-14T07:29:50.222Z,58.80
2023-08-14T07:30:50.328Z,58.67
2023-08-14T07:31:50.226Z,58.37
2023-08-14T07:32:50.277Z,58.08
2023-08-14T07:33:50.222Z,57.49
2023-08-14T07:34:50.181Z,57.59
2023-08-14T07:35:50.176Z,58.01
2023-08-14T07:36:50.397Z,59.67
2023-08-14T07:37:50.142Z,60.16
2023-08-14T07:38:50.098Z,60.68
2023-08-14T07:39:51.146Z,60.88
2023-08-14T07:40:50.082Z,60.46
2023-08-14T07:41:50.074Z,59.84
2023-08-14T07:42:50.089Z,59.77
2023-08-14T07:43:50.083Z,59.77
2023-08-14T07:44:50.050Z,60.09
2023-08-14T07:45:50.057Z,60.29
2023-08-14T07:46:49.985Z,60.19
2023-08-14T07:47:50.069Z,60.06
2023-08-14T07:48:50.835Z,59.34
2023-08-14T07:49:49.991Z,59.05
2023-08-14T07:50:49.952Z,58.92
2023-08-14T07:51:49.976Z,58.43
2023-08-14T07:52:49.910Z,59.02
2023-08-14T07:53:49.964Z,58.62
2023-08-14T07:54:49.959Z,58.95
2023-08-14T07:55:49.914Z,58.85
2023-08-14T07:56:51.283Z,58.53
2023-08-14T07:57:49.930Z,57.91
2023-08-14T07:58:49.864Z,57.91
2023-08-14T07:59:49.927Z,58.11
2023-08-14T08:00:49.899Z,58.60
2023-08-14T08:01:49.873Z,57.78
2023-08-14T08:02:49.798Z,56.80
2023-08-14T08:03:49.830Z,56.38
2023-08-14T08:04:49.884Z,56.38
2023-08-14T08:05:49.834Z,56.70
2023-08-14T08:06:49.783Z,56.80
2023-08-14T08:07:49.762Z,57.39
2023-08-14T08:08:50.438Z,57.49
2023-08-14T08:09:49.768Z,57.20
2023-08-14T08:10:49.669Z,56.97
2023-08-14T08:11:50.322Z,56.74
2023-08-14T08:12:51.585Z,57.26
2023-08-14T08:13:49.664Z,57.17
2023-08-14T08:14:50.331Z,56.94
2023-08-14T08:15:49.650Z,56.65
2023-08-14T08:16:49.608Z,57.21
2023-08-14T08:17:49.665Z,57.34
2023-08-14T08:18:49.596Z,57.01
2023-08-14T08:19:49.626Z,57.31
2023-08-14T08:20:49.566Z,56.42
2023-08-14T08:21:49.560Z,56.45
2023-08-14T08:22:49.510Z,56.84
2023-08-14T08:23:49.537Z,56.68
2023-08-14T08:24:49.535Z,57.78
2023-08-14T08:25:49.526Z,58.20
2023-08-14T08:26:49.461Z,58.40
2023-08-14T08:27:49.470Z,58.08
2023-08-14T08:28:49.479Z,58.60
2023-08-14T08:29:49.468Z,58.40
2023-08-14T08:30:49.418Z,58.57
2023-08-14T08:31:49.495Z,58.67
2023-08-14T08:32:49.457Z,58.37
2023-08-14T08:33:49.434Z,58.28
2023-08-14T08:34:49.376Z,58.57
2023-08-14T08:35:49.406Z,58.05
2023-08-14T08:36:49.415Z,57.73
2023-08-14T08:37:49.453Z,57.82
2023-08-14T08:38:50.132Z,58.22
2023-08-14T08:39:49.703Z,57.82
2023-08-14T08:40:49.693Z,57.63
2023-08-14T08:41:49.312Z,57.31
2023-08-14T08:42:49.274Z,57.11
2023-08-14T08:43:49.265Z,57.43
2023-08-14T08:44:49.243Z,57.82
2023-08-14T08:45:49.327Z,58.42
2023-08-14T08:46:49.265Z,58.06
2023-08-14T08:47:49.312Z,57.97
2023-08-14T08:48:49.280Z,56.88
2023-08-14T08:49:49.258Z,57.40
2023-08-14T08:50:49.212Z,58.02
2023-08-14T08:51:49.325Z,58.00
2023-08-14T08:52:51.677Z,57.92
2023-08-14T08:53:49.118Z,58.09
2023-08-14T08:54:49.116Z,58.19
2023-08-14T08:55:50.307Z,57.48
2023-08-14T08:56:49.096Z,56.86
2023-08-14T08:57:49.167Z,56.67
2023-08-14T08:58:49.043Z,56.69
2023-08-14T08:59:49.054Z,57.40
2023-08-14T09:00:49.052Z,57.57
2023-08-14T09:01:49.035Z,57.15
2023-08-14T09:02:52.019Z,56.47
2023-08-14T09:03:49.085Z,56.49
2023-08-14T09:04:49.090Z,56.98
2023-08-14T09:05:49.027Z,56.67
2023-08-14T09:06:49.034Z,56.05
2023-08-14T09:07:49.463Z,56.05
2023-08-14T09:08:48.925Z,55.46
2023-08-14T09:09:48.913Z,55.36
2023-08-14T09:10:48.929Z,55.16
2023-08-14T09:11:48.892Z,55.76
2023-08-14T09:12:48.851Z,57.08
2023-08-14T09:13:48.890Z,56.69
2023-08-14T09:14:48.857Z,55.49
2023-08-14T09:15:48.872Z,55.68
2023-08-14T09:16:52.779Z,55.29
2023-08-14T09:17:48.875Z,55.93
2023-08-14T09:18:48.891Z,56.65
2023-08-14T09:19:48.780Z,55.32
2023-08-14T09:20:48.755Z,54.41
2023-08-14T09:21:48.771Z,53.69
2023-08-14T09:22:48.752Z,53.57
2023-08-14T09:23:48.722Z,52.96
2023-08-14T09:24:48.698Z,52.64
2023-08-14T09:25:48.752Z,52.73
2023-08-14T09:26:48.693Z,53.23
2023-08-14T09:27:48.700Z,53.23
2023-08-14T09:28:48.745Z,52.73
2023-08-14T09:29:48.726Z,53.03
2023-08-14T09:30:48.714Z,54.23
2023-08-14T09:31:48.727Z,53.45
2023-08-14T09:32:48.691Z,52.73
2023-08-14T09:33:48.659Z,51.95
2023-08-14T09:34:48.742Z,52.05
2023-08-14T09:35:48.674Z,51.83
2023-08-14T09:36:50.459Z,52.32
2023-08-14T09:37:48.553Z,51.73
2023-08-14T09:38:48.517Z,51.64
2023-08-14T09:39:48.568Z,51.51
2023-08-14T09:40:48.486Z,51.42
2023-08-14T09:41:48.524Z,51.61
2023-08-14T09:42:48.539Z,51.83
2023-08-14T09:43:48.454Z,51.44
2023-08-14T09:44:48.427Z,51.42
2023-08-14T09:45:48.446Z,50.93
2023-08-14T09:46:48.545Z,50.44
2023-08-14T09:47:50.887Z,50.76
2023-08-14T09:48:48.485Z,50.76
2023-08-14T09:49:48.714Z,50.54
2023-08-14T09:50:48.432Z,50.24
2023-08-14T09:51:48.680Z,50.44
2023-08-14T09:52:48.377Z,50.44
2023-08-14T09:53:49.106Z,51.25
2023-08-14T09:54:48.322Z,51.27
2023-08-14T09:55:48.329Z,51.34
2023-08-14T09:56:48.381Z,51.15
2023-08-14T09:57:48.340Z,50.83
2023-08-14T09:58:48.278Z,50.15
2023-08-14T09:59:48.286Z,50.56
2023-08-14T10:00:48.400Z,51.15
2023-08-14T10:01:48.280Z,51.15
2023-08-14T10:02:48.471Z,50.56
2023-08-14T10:03:48.245Z,50.56
2023-08-14T10:04:48.201Z,50.54
2023-08-14T10:05:48.209Z,49.82
2023-08-14T10:06:48.386Z,50.20
2023-08-14T10:07:48.164Z,49.63
2023-08-14T10:08:48.120Z,49.24
2023-08-14T10:09:48.190Z,49.46
2023-08-14T10:11:05.491Z,50.10
2023-08-14T10:11:49.221Z,50.49
2023-08-14T10:12:48.178Z,49.85
2023-08-14T10:13:48.104Z,49.63
2023-08-14T10:14:48.099Z,49.33
2023-08-14T10:15:48.164Z,49.24
2023-08-14T10:16:48.227Z,49.02
2023-08-14T10:17:48.120Z,48.80
2023-08-14T10:18:48.015Z,48.39
2023-08-14T10:19:48.104Z,47.80
2023-08-14T10:20:49.288Z,47.90
2023-08-14T10:21:47.991Z,48.00
2023-08-14T10:22:48.063Z,47.90
2023-08-14T10:23:48.015Z,48.10
2023-08-14T10:24:47.976Z,48.32
2023-08-14T10:25:48.135Z,47.92
2023-08-14T10:26:47.888Z,48.71
2023-08-14T10:27:48.016Z,48.34
2023-08-14T10:28:47.862Z,48.14
2023-08-14T10:29:48.033Z,47.63
2023-08-14T10:30:47.996Z,47.75
2023-08-14T10:31:47.916Z,48.83
2023-08-14T10:32:47.892Z,49.80
2023-08-14T10:33:47.917Z,49.80
2023-08-14T10:34:47.889Z,49.12
2023-08-14T10:35:47.854Z,49.12
2023-08-14T10:36:47.841Z,49.00
2023-08-14T10:37:56.236Z,48.80
2023-08-14T10:38:48.734Z,48.49
2023-08-14T10:39:47.746Z,48.68
2023-08-14T10:40:51.066Z,48.90
2023-08-14T10:41:48.715Z,49.10
2023-08-14T10:42:47.682Z,48.80
2023-08-14T10:43:47.706Z,49.41
2023-08-14T10:44:47.662Z,49.32
2023-08-14T10:45:47.833Z,49.32
2023-08-14T10:46:47.722Z,49.41
2023-08-14T10:47:47.717Z,49.78
2023-08-14T10:48:47.651Z,48.73
2023-08-14T10:49:47.672Z,48.80
2023-08-14T10:50:47.640Z,49.19
2023-08-14T10:51:47.603Z,49.29
2023-08-14T10:52:47.619Z,49.39
2023-08-14T10:53:47.640Z,49.37
2023-08-14T10:54:47.588Z,49.17
2023-08-14T10:55:47.654Z,48.85
2023-08-14T10:56:47.477Z,48.07
2023-08-14T10:57:47.499Z,48.07
2023-08-14T10:58:47.466Z,48.63
2023-08-14T10:59:47.446Z,48.56
2023-08-14T11:00:47.420Z,48.75
2023-08-14T11:01:47.548Z,48.36
2023-08-14T11:02:47.503Z,48.75
2023-08-14T11:03:47.444Z,49.34
2023-08-14T11:04:47.391Z,48.95
2023-08-14T11:05:47.489Z,48.24
2023-08-14T11:06:47.354Z,47.53
2023-08-14T11:07:47.486Z,47.15
2023-08-14T11:08:47.355Z,47.22
2023-08-14T11:09:47.315Z,47.32
2023-08-14T11:11:02.574Z,47.42
2023-08-14T11:11:48.304Z,47.42
2023-08-14T11:12:47.236Z,47.61
2023-08-14T11:13:47.261Z,47.53
2023-08-14T11:14:47.295Z,47.15
2023-08-14T11:15:47.339Z,47.34
2023-08-14T11:16:47.236Z,47.15
2023-08-14T11:18:21.333Z,46.93
2023-08-14T11:18:47.200Z,48.02
2023-08-14T11:19:47.175Z,47.44
2023-08-14T11:20:51.682Z,47.61
2023-08-14T11:21:47.130Z,48.19
2023-08-14T11:22:47.140Z,47.52
2023-08-14T11:23:47.097Z,48.51
2023-08-14T11:24:47.132Z,48.93
2023-08-14T11:25:47.132Z,48.93
2023-08-14T11:26:47.169Z,49.22
2023-08-14T11:27:47.070Z,49.29
2023-08-14T11:28:47.190Z,49.32
2023-08-14T11:30:47.086Z,49.32
2023-08-14T11:31:49.625Z,49.51
2023-08-14T11:32:47.019Z,49.80
2023-08-14T11:33:47.018Z,49.49
2023-08-14T11:34:47.000Z,49.19
2023-08-14T11:35:47.177Z,49.39
2023-08-14T11:36:46.924Z,49.29
2023-08-14T11:37:47.004Z,49.46
2023-08-14T11:38:48.329Z,49.66
2023-08-14T11:39:46.994Z,49.46
2023-08-14T11:40:46.865Z,49.68
2023-08-14T11:41:46.913Z,49.97
2023-08-14T11:43:09.850Z,50.29
2023-08-14T11:43:47.037Z,50.09
2023-08-14T11:44:46.835Z,49.58
2023-08-14T11:45:46.905Z,49.58
2023-08-14T11:46:46.873Z,49.76
2023-08-14T11:47:47.034Z,48.36
2023-08-14T11:48:46.848Z,48.66
2023-08-14T11:50:56.734Z,48.88
2023-08-14T11:51:56.634Z,47.59
2023-08-14T11:52:56.667Z,47.30
2023-08-14T11:53:56.606Z,46.69
2023-08-14T11:54:56.635Z,47.20
2023-08-14T11:55:56.620Z,47.49
2023-08-14T11:56:56.617Z,47.98
2023-08-14T11:57:56.610Z,47.47
2023-08-14T11:59:06.550Z,47.54
2023-08-14T11:59:57.546Z,48.05
2023-08-14T12:00:56.574Z,47.37
2023-08-14T12:01:56.606Z,47.15
2023-08-14T12:02:56.622Z,47.34
2023-08-14T12:03:56.625Z,47.25
2023-08-14T12:04:56.482Z,47.54
2023-08-14T12:05:56.484Z,47.56
2023-08-14T12:06:57.103Z,47.86
2023-08-14T12:07:56.474Z,48.27
2023-08-14T12:08:56.507Z,48.17
2023-08-14T12:09:56.443Z,48.07
2023-08-14T12:10:56.429Z,47.66
2023-08-14T12:11:56.403Z,47.27
2023-08-14T12:12:56.468Z,46.77
2023-08-14T12:13:56.364Z,46.86
2023-08-14T12:14:56.430Z,47.25
2023-08-14T12:15:56.347Z,47.90
2023-08-14T12:16:58.869Z,48.80
2023-08-14T12:17:56.488Z,49.02
2023-08-14T12:18:56.406Z,49.41
2023-08-14T12:19:56.353Z,49.19
2023-08-14T12:20:56.304Z,48.88
2023-08-14T12:21:56.327Z,48.46
2023-08-14T12:23:00.208Z,47.90
2023-08-14T12:23:56.304Z,49.97
2023-08-14T12:24:56.279Z,47.63
2023-08-14T12:25:56.253Z,47.34
2023-08-14T12:26:56.262Z,47.05
2023-08-14T12:27:56.172Z,47.73
2023-08-14T12:28:56.265Z,47.71
2023-08-14T12:29:56.293Z,47.83
2023-08-14T12:30:56.201Z,48.00
2023-08-14T12:31:56.167Z,48.10
2023-08-14T12:32:56.217Z,48.61
2023-08-14T12:33:59.447Z,48.32
2023-08-14T12:34:57.125Z,48.80
2023-08-14T12:35:56.100Z,48.71
2023-08-14T12:36:56.170Z,48.80
2023-08-14T12:37:56.124Z,49.00
2023-08-14T12:38:56.148Z,48.51
2023-08-14T12:39:56.092Z,48.61
2023-08-14T12:40:56.166Z,48.12
2023-08-14T12:41:56.035Z,48.12
2023-08-14T12:42:55.993Z,48.02
2023-08-14T12:43:55.994Z,48.12
2023-08-14T12:44:56.137Z,48.93
2023-08-14T12:45:55.958Z,48.90
2023-08-14T12:46:56.319Z,48.54
2023-08-14T12:48:03.523Z,48.93
2023-08-14T12:48:55.930Z,48.73
2023-08-14T12:49:55.904Z,48.14
2023-08-14T12:51:02.353Z,47.66
2023-08-14T12:51:56.843Z,47.15
2023-08-14T12:52:55.900Z,46.37
2023-08-14T12:53:55.874Z,45.95
2023-08-14T12:56:03.422Z,44.65
2023-08-14T12:57:01.611Z,44.53